createdAt,value
2022-09-05T00:05:55.465Z,3.00
2022-09-05T00:11:42.487Z,2.70
2022-09-05T00:17:27.803Z,2.90
2022-09-05T00:24:26.251Z,2.80
2022-09-05T00:28:52.082Z,3.17
2022-09-05T00:31:55.559Z,2.53
2022-09-05T00:37:52.605Z,2.60
2022-09-05T00:43:33.859Z,2.77
2022-09-05T00:52:10.605Z,3.23
2022-09-05T00:55:14.282Z,2.73
2022-09-05T00:58:09.537Z,3.20
2022-09-05T01:00:59.435Z,3.03
2022-09-05T01:03:57.959Z,3.33
2022-09-05T01:06:57.164Z,2.93
2022-09-05T01:12:53.134Z,3.60
2022-09-05T01:15:44.537Z,3.33
2022-09-05T01:21:52.049Z,3.20
2022-09-05T01:29:13.020Z,2.97
2022-09-05T01:30:51.971Z,3.30
2022-09-05T01:36:41.928Z,2.67
2022-09-05T01:42:31.715Z,2.90
2022-09-05T01:48:13.635Z,3.10
2022-09-05T01:53:56.390Z,3.53
2022-09-05T01:59:40.359Z,3.20
2022-09-05T02:05:47.277Z,3.17
2022-09-05T02:11:11.732Z,3.23
2022-09-05T02:16:50.798Z,3.83
2022-09-05T02:22:32.935Z,3.30
2022-09-05T02:28:06.303Z,3.30
2022-09-05T02:33:47.859Z,3.70
2022-09-05T02:36:41.429Z,3.07
2022-09-05T02:45:18.802Z,2.97
2022-09-05T02:48:15.594Z,3.00
2022-09-05T02:57:34.405Z,3.27
2022-09-05T02:59:59.723Z,2.63
2022-09-05T03:12:29.627Z,2.90
2022-09-05T03:19:23.846Z,2.70
2022-09-05T03:22:37.140Z,2.97
2022-09-05T03:32:44.610Z,2.93
2022-09-05T03:36:13.159Z,2.97
2022-09-05T03:42:29.112Z,2.67
2022-09-05T03:45:39.759Z,3.30
2022-09-05T03:48:37.852Z,3.33
2022-09-05T03:57:16.514Z,3.60
2022-09-05T03:58:28.114Z,3.53
2022-09-05T04:08:13.808Z,3.80
2022-09-05T04:08:24.461Z,3.67
2022-09-05T04:12:42.684Z,3.63
2022-09-05T04:18:32.675Z,3.67
2022-09-05T04:24:08.697Z,3.30
2022-09-05T04:27:40.022Z,3.40
2022-09-05T04:30:49.689Z,3.10
2022-09-05T04:36:24.565Z,3.67
2022-09-05T04:39:28.374Z,3.37
2022-09-05T04:45:17.491Z,3.50
2022-09-05T04:48:08.298Z,3.53
2022-09-05T04:51:11.634Z,3.67
2022-09-05T04:54:05.369Z,7.70
2022-09-05T05:01:47.359Z,4.13
2022-09-05T05:17:38.295Z,3.70
2022-09-05T05:23:07.947Z,4.80
2022-09-05T05:28:53.500Z,4.77
2022-09-05T05:31:45.015Z,4.50
2022-09-05T05:34:35.602Z,4.20
2022-09-05T05:43:16.820Z,4.37
2022-09-05T05:48:56.990Z,4.07
2022-09-05T05:54:34.984Z,4.60
2022-09-05T06:01:40.888Z,4.57
2022-09-05T06:04:45.200Z,4.67
2022-09-05T06:14:51.207Z,4.97
2022-09-05T06:17:38.165Z,6.23
2022-09-05T06:24:43.003Z,5.23
2022-09-05T06:28:01.469Z,5.77
2022-09-05T06:33:52.884Z,5.80
2022-09-05T06:36:51.376Z,5.70
2022-09-05T06:39:51.885Z,6.37
2022-09-05T06:45:49.531Z,5.57
2022-09-05T06:52:17.915Z,4.90
2022-09-05T06:58:10.872Z,4.50
2022-09-05T07:03:59.057Z,3.63
2022-09-05T07:10:22.022Z,2.77
2022-09-05T07:15:44.398Z,2.83
2022-09-05T07:21:26.356Z,3.00
2022-09-05T07:27:05.087Z,2.77
2022-09-05T07:30:01.705Z,2.93
2022-09-05T07:35:42.177Z,3.10
2022-09-05T07:38:45.600Z,3.90
2022-09-05T07:44:11.190Z,4.93
2022-09-05T07:50:42.883Z,4.20
2022-09-05T07:58:43.961Z,3.40
2022-09-05T08:04:27.869Z,2.90
2022-09-05T08:10:10.458Z,2.97
2022-09-05T08:16:13.544Z,2.50
2022-09-05T08:21:31.131Z,3.17
2022-09-05T08:24:23.873Z,2.67
2022-09-05T08:27:16.424Z,2.57
2022-09-05T08:30:25.574Z,2.50
2022-09-05T08:35:46.666Z,2.53
2022-09-05T08:41:51.137Z,2.77
2022-09-05T08:46:40.241Z,2.80
2022-09-05T08:50:28.953Z,2.90
2022-09-05T08:56:13.206Z,2.43
2022-09-05T09:02:45.056Z,3.07
2022-09-05T09:07:51.636Z,3.20
2022-09-05T09:10:38.076Z,3.57
2022-09-05T09:16:19.353Z,3.00
2022-09-05T09:21:52.330Z,3.10
2022-09-05T09:30:34.700Z,3.30
2022-09-05T09:39:38.759Z,3.37
2022-09-05T09:45:29.026Z,3.53
2022-09-05T09:51:41.454Z,3.63
2022-09-05T09:58:29.348Z,4.10
2022-09-05T10:10:33.100Z,3.90
2022-09-05T10:13:35.666Z,4.27
2022-09-05T10:16:54.940Z,4.03
2022-09-05T10:22:52.482Z,3.63
2022-09-05T10:26:01.950Z,3.77
2022-09-05T10:35:06.907Z,3.90
2022-09-05T10:37:36.385Z,4.30
2022-09-05T10:46:07.191Z,3.30
2022-09-05T10:48:57.886Z,3.33
2022-09-05T10:51:51.907Z,3.30
2022-09-05T10:57:38.328Z,3.60
2022-09-05T11:03:38.518Z,2.90
2022-09-05T11:09:32.648Z,3.20
2022-09-05T11:12:29.683Z,3.13
2022-09-05T11:21:01.785Z,3.20
2022-09-05T11:23:57.104Z,2.83
2022-09-05T11:29:37.367Z,3.10
2022-09-05T11:40:06.173Z,3.00
2022-09-05T11:40:24.004Z,3.33
2022-09-05T11:48:32.864Z,3.20
2022-09-05T11:52:07.566Z,3.37
2022-09-05T11:58:44.227Z,3.07
2022-09-05T12:01:42.419Z,3.20
2022-09-05T12:07:31.491Z,3.20
2022-09-05T12:10:46.475Z,3.10
2022-09-05T12:22:37.171Z,3.23
2022-09-05T12:29:26.251Z,3.27
2022-09-05T12:36:07.081Z,3.27
2022-09-05T12:41:35.166Z,2.77
2022-09-05T12:45:42.153Z,3.20
2022-09-05T12:48:39.384Z,2.90
2022-09-05T12:59:43.411Z,2.83
2022-09-05T13:09:05.092Z,3.20
2022-09-05T13:20:39.238Z,3.63
2022-09-05T13:23:30.309Z,3.20
2022-09-05T13:29:10.470Z,2.90
2022-09-05T13:37:59.037Z,2.90
2022-09-05T13:43:38.155Z,2.70
2022-09-05T13:46:31.242Z,3.07
2022-09-05T13:52:16.898Z,2.60
2022-09-05T13:58:07.923Z,2.40
2022-09-05T14:01:19.555Z,2.77
2022-09-05T14:07:44.793Z,2.20
2022-09-05T14:16:31.580Z,2.17
2022-09-05T14:22:22.267Z,1.80
2022-09-05T14:27:52.421Z,2.10
2022-09-05T14:37:53.651Z,1.80
2022-09-05T14:37:54.128Z,2.10
2022-09-05T14:42:54.677Z,1.83
2022-09-05T14:48:59.813Z,1.97
2022-09-05T14:51:49.720Z,2.30
2022-09-05T15:02:39.546Z,2.40
2022-09-05T15:11:24.029Z,2.10
2022-09-05T15:12:21.743Z,2.63
2022-09-05T15:14:59.213Z,2.60
2022-09-05T15:20:37.764Z,3.00
2022-09-05T15:26:26.619Z,2.73
2022-09-05T15:32:09.059Z,2.10
2022-09-05T15:37:44.890Z,2.43
2022-09-05T15:48:50.086Z,2.17
2022-09-05T15:51:45.534Z,2.50
2022-09-05T16:00:46.151Z,1.90
2022-09-05T16:10:50.848Z,4.20
2022-09-05T16:12:58.435Z,2.40
2022-09-05T16:20:40.992Z,2.57
2022-09-05T16:23:30.262Z,2.00
2022-09-05T16:30:47.839Z,1.87
2022-09-05T16:33:36.459Z,1.70
2022-09-05T16:39:11.535Z,2.10
2022-09-05T16:44:52.595Z,2.40
2022-09-05T16:50:34.814Z,2.30
2022-09-05T16:53:33.304Z,1.77
2022-09-05T16:59:24.103Z,2.00
2022-09-05T17:05:07.983Z,1.80
2022-09-05T17:13:46.204Z,1.97
2022-09-05T17:19:20.466Z,1.83
2022-09-05T17:29:31.432Z,2.00
2022-09-05T17:37:47.210Z,2.07
2022-09-05T17:40:48.388Z,2.73
2022-09-05T17:49:19.393Z,2.10
2022-09-05T17:52:25.286Z,2.20
2022-09-05T17:55:48.181Z,2.70
2022-09-05T17:58:49.674Z,2.20
2022-09-05T18:01:29.644Z,2.07
2022-09-05T18:11:01.649Z,2.90
2022-09-05T18:20:00.265Z,2.20
2022-09-05T18:28:42.740Z,2.13
2022-09-05T18:34:51.921Z,2.40
2022-09-05T18:38:16.444Z,2.23
2022-09-05T18:44:13.300Z,2.60
2022-09-05T18:50:24.210Z,2.80
2022-09-05T18:56:11.054Z,2.80
2022-09-05T19:01:18.022Z,2.30
2022-09-05T19:09:42.854Z,2.83
2022-09-05T19:12:46.543Z,3.43
2022-09-05T19:18:26.509Z,2.20
2022-09-05T19:24:04.080Z,2.83
2022-09-05T19:27:35.821Z,4.03
2022-09-05T19:36:53.009Z,2.73
2022-09-05T19:37:03.123Z,3.77
2022-09-05T19:47:35.282Z,3.53
2022-09-05T19:47:38.166Z,3.40
2022-09-05T19:50:08.830Z,3.07
2022-09-05T19:55:57.873Z,3.10
2022-09-05T20:01:44.013Z,3.97
2022-09-05T20:04:37.678Z,3.30
2022-09-05T20:10:08.061Z,3.40
2022-09-05T20:28:51.514Z,3.33
2022-09-05T20:32:06.608Z,3.20
2022-09-05T20:36:57.914Z,3.13
2022-09-05T20:43:10.967Z,2.90
2022-09-05T20:43:57.851Z,2.70
2022-09-05T20:54:05.000Z,3.20
2022-09-05T20:54:17.179Z,2.77
2022-09-05T20:54:27.970Z,3.20
2022-09-05T20:55:40.368Z,3.20
2022-09-05T21:01:21.835Z,3.23
2022-09-05T21:06:54.599Z,3.70
2022-09-05T21:12:52.593Z,3.73
2022-09-05T21:18:47.481Z,3.60
2022-09-05T21:24:24.121Z,3.87
2022-09-05T21:30:23.059Z,3.60
2022-09-05T21:36:20.855Z,4.00
2022-09-05T21:47:35.074Z,3.93
2022-09-05T21:47:43.207Z,3.67
2022-09-05T21:54:46.012Z,4.43
2022-09-05T21:59:32.837Z,3.63
2022-09-05T22:01:50.773Z,3.70
2022-09-05T22:07:19.479Z,3.90
2022-09-05T22:10:11.595Z,3.43
2022-09-05T22:15:48.848Z,3.93
2022-09-05T22:18:38.803Z,4.43
2022-09-05T22:24:18.984Z,4.00
2022-09-05T22:29:56.123Z,3.67
2022-09-05T22:35:29.933Z,4.50
2022-09-05T22:38:20.242Z,3.87
2022-09-05T22:43:55.420Z,3.93
2022-09-05T22:49:30.507Z,3.63
2022-09-05T22:55:07.442Z,4.07
2022-09-05T23:00:38.128Z,3.67
2022-09-05T23:06:18.966Z,4.20
2022-09-05T23:11:54.375Z,4.70
2022-09-05T23:17:33.016Z,4.23
2022-09-05T23:20:22.430Z,4.10
2022-09-05T23:23:11.589Z,4.33
2022-09-05T23:26:02.467Z,4.83
2022-09-05T23:31:37.262Z,4.50
2022-09-05T23:37:10.850Z,5.47
2022-09-05T23:42:53.321Z,4.67
2022-09-05T23:45:41.822Z,4.83
2022-09-05T23:48:31.112Z,4.43
2022-09-05T23:51:19.886Z,4.87
2022-09-05T23:54:08.545Z,4.63
2022-09-05T23:59:41.522Z,4.57
